Time;durP1;ratioP1;P1;durP2;ratioP2;P2;SDS_P1;SDS_P2;PMS_P1;PMS_P2;Temp;Humidity;BMP_temperature;BMP_pressure;BME280_temperature;BME280_humidity;BME280_pressure;Samples;Min_cycle;Max_cycle;Signal;HPM_P1;HPM_P2
2022/11/21 00:00:23;;;;;;;;;;;5.90;90.70;;;;;;5072777;28;19943;-89
2022/11/21 00:02:48;;;;;;;;;;;6.00;90.70;;;;;;5072678;28;19938;-89
2022/11/21 00:05:14;;;;;;;;;;;6.00;90.80;;;;;;5072743;28;19935;-89
2022/11/21 00:07:39;;;;;;;;;;;6.10;90.80;;;;;;5072749;28;20091;-89
2022/11/21 00:10:05;;;;;;;;;;;6.00;90.60;;;;;;5072639;28;20363;-89
2022/11/21 00:12:31;;;;;;;;;;;5.90;91.20;;;;;;5072671;28;19940;-89
2022/11/21 00:14:56;;;;;;;;;;;5.80;92.00;;;;;;5072651;28;19988;-89
2022/11/21 00:17:22;;;;;;;;;;;5.80;92.20;;;;;;5072646;28;20422;-89
2022/11/21 00:19:47;;;;;;;;;;;5.90;92.00;;;;;;5072564;28;19937;-90
2022/11/21 00:22:13;;;;;;;;;;;5.90;91.60;;;;;;5072621;28;19986;-89
2022/11/21 00:24:39;;;;;;;;;;;5.80;91.20;;;;;;5072488;28;20432;-89
2022/11/21 00:27:04;;;;;;;;;;;5.80;91.10;;;;;;5074441;28;19945;-89
2022/11/21 00:29:30;;;;;;;;;;;5.80;90.90;;;;;;5076214;28;19981;-89
2022/11/21 00:31:55;;;;;;;;;;;5.80;90.70;;;;;;5076188;28;20011;-88
2022/11/21 00:34:21;;;;;;;;;;;5.90;91.30;;;;;;5076137;28;19939;-89
2022/11/21 00:36:46;;;;;;;;;;;5.90;91.00;;;;;;5076057;28;20353;-89
2022/11/21 00:39:12;;;;;;;;;;;5.90;90.80;;;;;;5076034;28;20468;-88
2022/11/21 00:41:37;;;;;;;;;;;6.00;91.10;;;;;;5076007;28;20400;-89
2022/11/21 00:44:03;;;;;;;;;;;6.10;91.00;;;;;;5075900;28;20374;-89
2022/11/21 00:46:28;;;;;;;;;;;6.20;91.00;;;;;;5075878;28;20343;-89
2022/11/21 00:48:54;;;;;;;;;;;6.20;90.90;;;;;;5075836;28;20035;-89
2022/11/21 00:51:20;;;;;;;;;;;6.30;90.80;;;;;;5057846;28;19990;-89
2022/11/21 00:53:46;;;;;;;;;;;6.40;90.70;;;;;;5075609;28;20062;-90
2022/11/21 00:56:11;;;;;;;;;;;6.40;90.60;;;;;;5075711;28;19938;-89
2022/11/21 00:58:37;;;;;;;;;;;6.40;90.70;;;;;;5075702;28;19933;-89
2022/11/21 01:01:12;;;;;;;;;;;6.50;90.70;;;;;;5075693;28;20351;-89
2022/11/21 01:03:38;;;;;;;;;;;6.60;90.50;;;;;;5075573;28;20436;-89
2022/11/21 01:06:09;;;;;;;;;;;6.70;89.70;;;;;;5075529;28;20487;-89
2022/11/21 01:08:35;;;;;;;;;;;6.80;89.10;;;;;;5075513;28;19942;-89
2022/11/21 01:11:01;;;;;;;;;;;6.80;88.70;;;;;;5075478;28;19949;-89
2022/11/21 01:13:27;;;;;;;;;;;6.70;88.70;;;;;;5075402;28;19967;-89
2022/11/21 01:15:52;;;;;;;;;;;6.50;88.60;;;;;;5075356;28;19980;-89
2022/11/21 01:18:18;;;;;;;;;;;6.30;89.50;;;;;;5075376;28;19941;-89
2022/11/21 01:20:44;;;;;;;;;;;6.30;89.80;;;;;;5075287;28;19947;-89
2022/11/21 01:23:09;;;;;;;;;;;6.40;90.00;;;;;;5074914;28;19959;-89
2022/11/21 01:25:35;;;;;;;;;;;6.40;90.00;;;;;;5075161;28;20065;-89
2022/11/21 01:28:01;;;;;;;;;;;6.40;90.80;;;;;;5075179;28;20394;-89
2022/11/21 01:30:26;;;;;;;;;;;6.40;90.90;;;;;;5075360;28;20083;-89
2022/11/21 01:32:52;;;;;;;;;;;6.30;91.20;;;;;;5075054;28;20038;-89
2022/11/21 01:35:17;;;;;;;;;;;6.30;91.50;;;;;;5075044;28;20018;-89
2022/11/21 01:37:47;;;;;;;;;;;6.40;91.50;;;;;;5074726;28;20030;-89
2022/11/21 01:40:13;;;;;;;;;;;6.40;91.50;;;;;;5074933;28;20424;-88
2022/11/21 01:42:51;;;;;;;;;;;6.40;91.80;;;;;;5074839;28;20005;-89
2022/11/21 01:45:42;;;;;;;;;;;6.50;91.90;;;;;;5074723;28;19949;-89
2022/11/21 01:48:08;;;;;;;;;;;6.70;91.50;;;;;;5056646;28;19941;-89
2022/11/21 01:50:33;;;;;;;;;;;6.70;91.20;;;;;;5074654;28;20346;-89
2022/11/21 01:52:59;;;;;;;;;;;6.70;91.00;;;;;;5074402;28;20052;-89
2022/11/21 01:55:24;;;;;;;;;;;6.70;91.10;;;;;;5074597;28;19980;-89
2022/11/21 01:57:50;;;;;;;;;;;6.70;91.10;;;;;;5074564;28;19978;-89
2022/11/21 02:00:22;;;;;;;;;;;6.90;90.80;;;;;;5074488;28;19943;-89
2022/11/21 02:02:50;;;;;;;;;;;6.90;90.00;;;;;;5074434;28;19942;-89
2022/11/21 02:05:18;;;;;;;;;;;6.90;89.90;;;;;;5074283;28;20400;-89
2022/11/21 02:07:45;;;;;;;;;;;6.90;89.80;;;;;;5074289;28;20274;-89
2022/11/21 02:10:10;;;;;;;;;;;6.90;89.80;;;;;;5074302;28;19940;-89
2022/11/21 02:12:44;;;;;;;;;;;6.80;90.20;;;;;;5074457;28;20045;-89
2022/11/21 02:15:10;;;;;;;;;;;6.80;90.30;;;;;;5074160;28;19974;-90
2022/11/21 02:17:36;;;;;;;;;;;7.00;90.30;;;;;;5074064;28;19970;-89
2022/11/21 02:20:03;;;;;;;;;;;7.30;90.10;;;;;;5074050;28;19941;-89
2022/11/21 02:22:54;;;;;;;;;;;7.20;89.70;;;;;;5055887;28;19984;-90
2022/11/21 02:25:20;;;;;;;;;;;7.10;89.40;;;;;;5073998;28;20443;-89
2022/11/21 02:27:47;;;;;;;;;;;6.90;89.10;;;;;;5073918;28;19966;-89
2022/11/21 02:30:14;;;;;;;;;;;6.80;89.70;;;;;;5073901;28;19983;-89
2022/11/21 02:32:40;;;;;;;;;;;6.70;89.90;;;;;;5073874;28;19941;-89
2022/11/21 02:35:06;;;;;;;;;;;6.70;90.20;;;;;;5073787;28;19936;-89
2022/11/21 02:37:33;;;;;;;;;;;6.80;90.40;;;;;;5055835;28;20083;-89
2022/11/21 02:40:00;;;;;;;;;;;6.80;90.40;;;;;;5073688;28;19939;-89
2022/11/21 02:42:46;;;;;;;;;;;6.80;90.20;;;;;;5073668;28;19949;-89
2022/11/21 02:45:27;;;;;;;;;;;6.70;90.00;;;;;;5073539;28;20012;-89
2022/11/21 02:47:54;;;;;;;;;;;6.90;89.40;;;;;;5073543;28;19951;-89
2022/11/21 02:50:27;;;;;;;;;;;6.80;88.80;;;;;;5073000;28;19940;-89
2022/11/21 02:52:52;;;;;;;;;;;6.70;89.20;;;;;;5073334;28;19939;-89
2022/11/21 02:55:18;;;;;;;;;;;6.80;89.50;;;;;;5073514;28;20000;-89
2022/11/21 02:57:43;;;;;;;;;;;6.90;89.50;;;;;;5055448;28;20322;-89
2022/11/21 03:00:10;;;;;;;;;;;7.00;89.30;;;;;;5073429;28;20290;-89
2022/11/21 03:02:35;;;;;;;;;;;6.90;89.30;;;;;;5073307;28;20060;-89
2022/11/21 03:05:01;;;;;;;;;;;6.70;87.90;;;;;;5073283;28;20393;-89
2022/11/21 03:07:27;;;;;;;;;;;6.40;87.70;;;;;;5073318;28;19939;-89
2022/11/21 03:09:53;;;;;;;;;;;6.40;88.70;;;;;;5055226;28;20326;-88
2022/11/21 03:12:18;;;;;;;;;;;6.20;89.00;;;;;;5073268;28;19932;-89
2022/11/21 03:14:44;;;;;;;;;;;6.20;89.80;;;;;;5073198;28;20319;-89
2022/11/21 03:17:09;;;;;;;;;;;6.20;90.50;;;;;;5073227;28;20034;-89
2022/11/21 03:19:35;;;;;;;;;;;6.20;89.90;;;;;;5073222;28;20390;-89
2022/11/21 03:22:01;;;;;;;;;;;6.10;90.40;;;;;;5072984;28;19997;-89
2022/11/21 03:24:27;;;;;;;;;;;6.10;90.60;;;;;;5073224;28;20018;-89
2022/11/21 03:26:52;;;;;;;;;;;6.10;90.60;;;;;;5073089;28;19942;-89
2022/11/21 03:29:18;;;;;;;;;;;5.90;90.40;;;;;;5073353;28;20285;-88
2022/11/21 03:31:43;;;;;;;;;;;5.90;91.00;;;;;;5073343;28;20462;-89
2022/11/21 03:34:09;;;;;;;;;;;5.80;90.90;;;;;;5073011;28;20032;-89
2022/11/21 03:36:34;;;;;;;;;;;5.80;91.30;;;;;;5073013;28;19942;-88
2022/11/21 03:39:01;;;;;;;;;;;5.80;91.50;;;;;;5072991;28;19935;-89
2022/11/21 03:41:29;;;;;;;;;;;5.80;91.80;;;;;;5072955;28;19967;-88
2022/11/21 03:43:58;;;;;;;;;;;5.70;91.50;;;;;;5054837;28;20455;-89
2022/11/21 03:46:24;;;;;;;;;;;5.60;91.60;;;;;;5072927;28;19937;-89
2022/11/21 03:48:50;;;;;;;;;;;5.50;91.80;;;;;;5072920;28;19945;-89
2022/11/21 03:51:15;;;;;;;;;;;5.40;91.70;;;;;;5072885;28;19947;-89
2022/11/21 03:53:41;;;;;;;;;;;5.40;92.30;;;;;;5072909;28;20156;-89
2022/11/21 03:56:06;;;;;;;;;;;5.50;92.50;;;;;;5072828;28;20374;-89
2022/11/21 03:58:32;;;;;;;;;;;5.70;92.00;;;;;;5072829;28;19938;-89
2022/11/21 04:00:57;;;;;;;;;;;5.60;91.40;;;;;;5056675;28;20001;-89
2022/11/21 04:03:23;;;;;;;;;;;5.50;90.60;;;;;;5076479;28;19967;-89
2022/11/21 04:05:48;;;;;;;;;;;5.50;90.80;;;;;;5076668;28;19941;-88
2022/11/21 04:08:14;;;;;;;;;;;5.50;90.20;;;;;;5076649;28;20031;-89
2022/11/21 04:10:45;;;;;;;;;;;5.50;90.10;;;;;;5076607;28;19999;-89
2022/11/21 04:13:10;;;;;;;;;;;5.40;89.40;;;;;;5076554;28;19941;-89
2022/11/21 04:15:36;;;;;;;;;;;5.30;89.40;;;;;;5058603;28;20405;-89
2022/11/21 04:18:02;;;;;;;;;;;5.20;90.00;;;;;;5076449;28;19948;-89
2022/11/21 04:20:27;;;;;;;;;;;5.30;89.80;;;;;;5076644;28;20047;-89
2022/11/21 04:22:53;;;;;;;;;;;5.50;90.20;;;;;;5076109;28;20089;-89
2022/11/21 04:25:18;;;;;;;;;;;5.50;90.10;;;;;;5076214;28;19968;-89
2022/11/21 04:27:44;;;;;;;;;;;5.50;90.40;;;;;;5076235;28;19942;-89
2022/11/21 04:30:09;;;;;;;;;;;5.70;90.40;;;;;;5076163;28;20306;-89
2022/11/21 04:32:35;;;;;;;;;;;5.70;89.20;;;;;;5058156;28;19950;-89
2022/11/21 04:35:01;;;;;;;;;;;5.50;89.10;;;;;;5076106;28;19942;-89
2022/11/21 04:37:26;;;;;;;;;;;5.40;88.70;;;;;;5076335;28;20341;-89
2022/11/21 04:39:52;;;;;;;;;;;5.30;88.50;;;;;;5076011;28;19942;-89
2022/11/21 04:42:17;;;;;;;;;;;5.30;87.50;;;;;;5075963;28;20370;-89
2022/11/21 04:44:43;;;;;;;;;;;5.10;87.80;;;;;;5075909;28;19981;-89
2022/11/21 04:47:08;;;;;;;;;;;4.90;89.30;;;;;;5075939;28;19998;-89
2022/11/21 04:49:34;;;;;;;;;;;4.90;89.40;;;;;;5075886;28;19960;-89
2022/11/21 04:51:59;;;;;;;;;;;5.00;89.60;;;;;;5075700;28;20007;-89
2022/11/21 04:54:25;;;;;;;;;;;4.90;89.30;;;;;;5075554;28;19951;-89
2022/11/21 04:56:50;;;;;;;;;;;4.80;89.90;;;;;;5075205;28;19948;-89
2022/11/21 04:59:16;;;;;;;;;;;4.90;89.20;;;;;;5074927;28;19944;-89
2022/11/21 05:01:41;;;;;;;;;;;4.90;90.60;;;;;;5073880;28;19947;-89
2022/11/21 05:04:07;;;;;;;;;;;4.80;91.10;;;;;;5073540;28;19962;-89
2022/11/21 05:06:32;;;;;;;;;;;5.00;91.30;;;;;;5073937;28;19954;-89
2022/11/21 05:08:58;;;;;;;;;;;4.90;90.90;;;;;;5075390;28;19934;-89
2022/11/21 05:14:07;;;;;;;;;;;5.00;90.50;;;;;;5075276;28;19947;-89
2022/11/21 05:16:33;;;;;;;;;;;5.00;89.90;;;;;;5075298;28;19937;-88
2022/11/21 05:18:58;;;;;;;;;;;4.90;90.30;;;;;;5075162;28;20022;-89
2022/11/21 05:21:24;;;;;;;;;;;4.90;90.70;;;;;;5057151;28;19944;-89
2022/11/21 05:23:49;;;;;;;;;;;4.80;90.80;;;;;;5074975;28;20005;-89
2022/11/21 05:26:15;;;;;;;;;;;4.70;91.20;;;;;;5068940;28;20019;-90
2022/11/21 05:28:41;;;;;;;;;;;4.60;91.40;;;;;;5074950;28;20382;-89
2022/11/21 05:31:06;;;;;;;;;;;4.60;91.50;;;;;;5074692;28;20416;-89
2022/11/21 05:33:32;;;;;;;;;;;4.70;90.80;;;;;;5074987;28;19973;-89
2022/11/21 05:35:57;;;;;;;;;;;4.80;91.10;;;;;;5074870;28;19992;-89
2022/11/21 05:38:23;;;;;;;;;;;4.80;90.20;;;;;;5074996;28;19983;-89
2022/11/21 05:40:50;;;;;;;;;;;4.60;89.10;;;;;;5074940;28;19981;-89
2022/11/21 05:46:00;;;;;;;;;;;4.40;91.30;;;;;;5074805;28;19945;-89
2022/11/21 05:48:25;;;;;;;;;;;4.30;91.10;;;;;;5074684;28;19938;-89
2022/11/21 05:50:51;;;;;;;;;;;4.10;90.00;;;;;;5056812;28;19940;-89
2022/11/21 05:53:17;;;;;;;;;;;4.10;90.70;;;;;;5074034;28;19955;-89
2022/11/21 05:55:42;;;;;;;;;;;4.20;91.90;;;;;;5074318;28;19947;-89
2022/11/21 05:58:09;;;;;;;;;;;4.20;92.20;;;;;;5074382;28;19990;-89
2022/11/21 06:00:35;;;;;;;;;;;4.20;92.80;;;;;;5074629;28;19943;-89
2022/11/21 06:05:45;;;;;;;;;;;4.20;92.40;;;;;;5074172;28;20081;-89
2022/11/21 06:08:10;;;;;;;;;;;4.20;91.40;;;;;;5073853;28;19992;-89
2022/11/21 06:10:36;;;;;;;;;;;4.10;90.70;;;;;;5073877;28;19954;-89
2022/11/21 06:13:02;;;;;;;;;;;4.10;90.60;;;;;;5073771;28;20305;-89
2022/11/21 06:15:28;;;;;;;;;;;4.00;89.80;;;;;;5073480;28;20334;-89
2022/11/21 06:17:53;;;;;;;;;;;4.10;90.70;;;;;;5073164;28;19941;-89
2022/11/21 06:20:19;;;;;;;;;;;4.20;91.30;;;;;;5073652;28;19968;-89
2022/11/21 06:22:44;;;;;;;;;;;4.30;91.10;;;;;;5055564;28;19974;-89
2022/11/21 06:25:10;;;;;;;;;;;4.30;91.10;;;;;;5071506;28;19993;-89
2022/11/21 06:27:35;;;;;;;;;;;4.30;92.00;;;;;;5070959;28;19954;-89
2022/11/21 06:30:01;;;;;;;;;;;4.20;92.90;;;;;;5069383;28;19993;-89
2022/11/21 06:32:27;;;;;;;;;;;4.20;92.20;;;;;;5069433;28;19999;-89
2022/11/21 06:34:52;;;;;;;;;;;4.10;91.80;;;;;;5069465;28;19941;-89
2022/11/21 06:37:18;;;;;;;;;;;4.10;91.50;;;;;;5068778;28;20301;-88
2022/11/21 06:39:43;;;;;;;;;;;4.30;92.30;;;;;;5068514;28;19943;-90
2022/11/21 06:42:09;;;;;;;;;;;4.40;92.30;;;;;;5072436;28;19982;-88
2022/11/21 06:44:34;;;;;;;;;;;4.20;91.00;;;;;;5070589;28;20010;-89
2022/11/21 06:47:00;;;;;;;;;;;3.90;90.40;;;;;;5069397;28;19948;-89
2022/11/21 06:49:26;;;;;;;;;;;3.90;91.00;;;;;;5071674;28;19951;-88
2022/11/21 06:51:51;;;;;;;;;;;4.10;91.60;;;;;;5070290;28;19946;-89
2022/11/21 06:54:17;;;;;;;;;;;4.10;91.10;;;;;;5070653;28;19949;-89
2022/11/21 06:56:43;;;;;;;;;;;3.80;89.90;;;;;;5070764;28;20484;-89
2022/11/21 06:59:08;;;;;;;;;;;3.80;90.90;;;;;;5045667;28;19943;-89
2022/11/21 07:01:34;;;;;;;;;;;3.90;91.60;;;;;;5066509;28;19946;-89
2022/11/21 07:03:59;;;;;;;;;;;3.90;91.10;;;;;;5071660;28;19970;-89
2022/11/21 07:06:26;;;;;;;;;;;3.90;90.80;;;;;;5071434;28;19945;-89
2022/11/21 07:08:53;;;;;;;;;;;3.80;90.90;;;;;;5069077;28;20050;-89
2022/11/21 07:11:18;;;;;;;;;;;3.80;91.30;;;;;;5071737;28;19966;-90
2022/11/21 07:13:44;;;;;;;;;;;3.80;91.30;;;;;;5068636;28;20023;-89
2022/11/21 07:16:13;;;;;;;;;;;3.90;92.50;;;;;;5070059;28;20380;-89
2022/11/21 07:18:38;;;;;;;;;;;4.10;93.60;;;;;;5046924;28;20002;-89
2022/11/21 07:21:04;;;;;;;;;;;4.40;93.80;;;;;;5068329;28;20045;-89
2022/11/21 07:23:30;;;;;;;;;;;4.60;93.70;;;;;;5090170;22;20329;-89
2022/11/21 07:26:00;;;;;;;;;;;4.90;93.00;;;;;;5091734;28;19947;-89
2022/11/21 07:28:29;;;;;;;;;;;5.00;92.60;;;;;;5070574;28;20295;-89
2022/11/21 07:30:55;;;;;;;;;;;5.30;92.20;;;;;;5088507;28;19984;-89
2022/11/21 07:33:21;;;;;;;;;;;5.40;91.10;;;;;;5087894;28;19951;-89
2022/11/21 07:35:47;;;;;;;;;;;5.40;91.40;;;;;;5089008;28;19944;-89
2022/11/21 07:38:12;;;;;;;;;;;5.50;90.90;;;;;;5092449;28;20309;-89
2022/11/21 07:40:38;;;;;;;;;;;5.60;90.30;;;;;;5085872;28;20358;-89
2022/11/21 07:43:04;;;;;;;;;;;5.70;90.10;;;;;;5085370;28;19950;-90
2022/11/21 07:45:30;;;;;;;;;;;5.60;90.20;;;;;;5092049;28;19960;-89
2022/11/21 07:47:56;;;;;;;;;;;5.60;90.50;;;;;;5092141;28;19933;-89
2022/11/21 07:50:22;;;;;;;;;;;5.60;90.90;;;;;;5088960;28;19996;-89
2022/11/21 07:52:47;;;;;;;;;;;5.70;91.30;;;;;;5096972;28;19941;-89
2022/11/21 07:55:13;;;;;;;;;;;5.80;91.60;;;;;;5110716;28;20458;-89
2022/11/21 07:57:38;;;;;;;;;;;6.20;91.60;;;;;;5109223;28;19962;-89
2022/11/21 08:00:04;;;;;;;;;;;6.40;91.40;;;;;;5108849;28;20357;-89
2022/11/21 08:02:29;;;;;;;;;;;6.50;91.30;;;;;;5106660;28;20065;-89
2022/11/21 08:04:55;;;;;;;;;;;6.50;90.80;;;;;;5110640;28;19945;-89
2022/11/21 08:07:21;;;;;;;;;;;6.50;90.70;;;;;;5107265;28;19986;-89
2022/11/21 08:09:47;;;;;;;;;;;6.50;90.90;;;;;;5111241;28;19984;-89
2022/11/21 08:12:13;;;;;;;;;;;6.70;90.90;;;;;;5109114;28;19976;-90
2022/11/21 08:14:39;;;;;;;;;;;6.80;90.90;;;;;;5107942;28;19989;-90
2022/11/21 08:17:05;;;;;;;;;;;6.90;90.90;;;;;;5106839;28;19951;-89
2022/11/21 08:19:31;;;;;;;;;;;6.80;90.90;;;;;;5105625;28;20058;-89
2022/11/21 08:21:56;;;;;;;;;;;6.80;90.60;;;;;;5104591;28;20419;-89
2022/11/21 08:24:22;;;;;;;;;;;6.90;91.20;;;;;;5110507;28;19953;-89
2022/11/21 08:26:47;;;;;;;;;;;7.00;91.10;;;;;;5109275;28;19982;-89
2022/11/21 08:29:16;;;;;;;;;;;7.10;90.70;;;;;;5108421;28;20390;-89
2022/11/21 08:31:42;;;;;;;;;;;7.30;90.50;;;;;;5088532;28;19980;-89
2022/11/21 08:34:08;;;;;;;;;;;7.40;90.10;;;;;;5101072;28;20728;-88
2022/11/21 08:36:33;;;;;;;;;;;7.40;89.60;;;;;;5109279;28;19944;-89
2022/11/21 08:38:59;;;;;;;;;;;7.40;89.50;;;;;;5108697;28;20403;-89
2022/11/21 08:44:09;;;;;;;;;;;7.70;89.20;;;;;;5106553;28;20464;-89
2022/11/21 08:46:36;;;;;;;;;;;7.90;89.30;;;;;;5088505;28;19948;-89
2022/11/21 08:49:02;;;;;;;;;;;7.90;88.10;;;;;;5104047;28;19944;-88
2022/11/21 08:51:27;;;;;;;;;;;8.00;89.10;;;;;;5094976;28;20012;-89
2022/11/21 08:53:53;;;;;;;;;;;8.00;88.50;;;;;;5105736;28;20041;-89
2022/11/21 08:56:19;;;;;;;;;;;8.00;88.90;;;;;;5113315;28;19951;-89
2022/11/21 08:58:44;;;;;;;;;;;8.00;88.80;;;;;;5107195;28;19966;-89
2022/11/21 09:01:10;;;;;;;;;;;7.90;87.80;;;;;;5113596;28;19951;-88
2022/11/21 09:03:35;;;;;;;;;;;7.80;88.10;;;;;;5112208;28;19946;-88
2022/11/21 09:06:01;;;;;;;;;;;7.90;88.40;;;;;;5114838;28;19944;-89
2022/11/21 09:08:27;;;;;;;;;;;7.90;87.70;;;;;;5112849;28;19951;-89
2022/11/21 09:10:53;;;;;;;;;;;8.00;87.70;;;;;;5110169;28;19948;-89
2022/11/21 09:13:18;;;;;;;;;;;8.10;87.50;;;;;;5112700;28;19957;-89
2022/11/21 09:18:28;;;;;;;;;;;8.40;86.20;;;;;;5111401;28;19952;-89
2022/11/21 09:20:54;;;;;;;;;;;8.50;85.70;;;;;;5111690;28;19940;-89
2022/11/21 09:23:19;;;;;;;;;;;8.70;84.70;;;;;;5112275;28;19978;-89
2022/11/21 09:25:45;;;;;;;;;;;8.90;83.70;;;;;;5108677;28;20024;-89
2022/11/21 09:28:11;;;;;;;;;;;9.20;82.70;;;;;;5109168;28;20085;-89
2022/11/21 09:30:37;;;;;;;;;;;9.20;83.10;;;;;;5103343;28;19944;-90
2022/11/21 09:33:04;;;;;;;;;;;9.30;83.30;;;;;;5114304;28;20454;-89
2022/11/21 09:35:29;;;;;;;;;;;9.40;81.00;;;;;;5112821;28;20035;-89
2022/11/21 09:37:55;;;;;;;;;;;9.40;79.10;;;;;;5113206;28;20083;-89
2022/11/21 09:40:21;;;;;;;;;;;9.60;80.00;;;;;;5112963;28;20026;-89
2022/11/21 09:42:55;;;;;;;;;;;9.80;80.50;;;;;;5111221;28;19937;-89
2022/11/21 09:45:27;;;;;;;;;;;10.30;79.40;;;;;;5094829;28;19955;-90
2022/11/21 09:47:52;;;;;;;;;;;10.70;77.50;;;;;;5112680;28;19944;-89
2022/11/21 09:50:24;;;;;;;;;;;10.70;76.80;;;;;;5110843;28;20325;-89
2022/11/21 09:52:58;;;;;;;;;;;10.60;75.00;;;;;;5110849;28;19986;-89
2022/11/21 09:55:33;;;;;;;;;;;10.80;75.80;;;;;;5092454;28;19950;-89
2022/11/21 09:58:03;;;;;;;;;;;10.90;74.50;;;;;;5107866;28;19962;-89
2022/11/21 10:00:30;;;;;;;;;;;11.20;73.80;;;;;;5110338;28;19944;-89
2022/11/21 10:02:56;;;;;;;;;;;11.40;72.10;;;;;;5109246;28;20076;-89
2022/11/21 10:05:41;;;;;;;;;;;11.30;71.10;;;;;;5109745;28;20030;-89
2022/11/21 10:08:16;;;;;;;;;;;11.30;72.90;;;;;;5058387;28;19950;-89
2022/11/21 10:10:54;;;;;;;;;;;11.30;72.10;;;;;;5110573;28;19950;-89
2022/11/21 10:13:31;;;;;;;;;;;11.20;67.50;;;;;;5087300;28;19969;-88
2022/11/21 10:16:02;;;;;;;;;;;10.90;68.10;;;;;;5112119;28;19943;-89
2022/11/21 10:18:46;;;;;;;;;;;10.90;69.40;;;;;;5091730;28;19986;-89
2022/11/21 10:21:14;;;;;;;;;;;10.90;70.60;;;;;;5111503;28;20347;-89
2022/11/21 10:23:55;;;;;;;;;;;11.00;70.00;;;;;;5092779;28;20064;-90
2022/11/21 10:26:34;;;;;;;;;;;11.20;70.10;;;;;;5087725;28;20031;-89
2022/11/21 10:29:03;;;;;;;;;;;11.40;69.10;;;;;;5112399;28;19936;-89
2022/11/21 10:31:31;;;;;;;;;;;11.60;68.80;;;;;;5111523;28;20025;-89
2022/11/21 10:33:57;;;;;;;;;;;11.60;68.10;;;;;;5111883;28;19946;-89
2022/11/21 10:36:29;;;;;;;;;;;11.60;69.30;;;;;;5110457;28;19949;-88
2022/11/21 10:38:58;;;;;;;;;;;11.80;67.30;;;;;;5112293;28;19947;-89
2022/11/21 10:41:34;;;;;;;;;;;11.50;68.20;;;;;;5110255;28;19978;-89
2022/11/21 10:47:12;;;;;;;;;;;11.60;68.30;;;;;;5108346;28;19948;-89
2022/11/21 10:49:38;;;;;;;;;;;11.90;68.90;;;;;;5112064;28;19946;-89
2022/11/21 10:52:12;;;;;;;;;;;12.30;67.20;;;;;;5111634;28;19934;-89
2022/11/21 10:54:58;;;;;;;;;;;12.50;66.10;;;;;;5107942;28;20047;-90
2022/11/21 10:57:28;;;;;;;;;;;12.60;66.40;;;;;;5090202;28;19991;-89
2022/11/21 11:00:12;;;;;;;;;;;12.60;65.80;;;;;;5085717;28;19942;-89
2022/11/21 11:02:42;;;;;;;;;;;12.90;65.20;;;;;;5098981;28;20345;-89
2022/11/21 11:05:16;;;;;;;;;;;12.90;64.60;;;;;;5112457;28;19969;-89
2022/11/21 11:07:57;;;;;;;;;;;12.70;65.30;;;;;;5106054;28;19998;-89
2022/11/21 11:10:23;;;;;;;;;;;12.50;65.30;;;;;;5113054;28;20525;-89
2022/11/21 11:15:35;;;;;;;;;;;12.30;67.30;;;;;;5112761;28;20384;-88
2022/11/21 11:18:02;;;;;;;;;;;12.30;67.80;;;;;;5093330;28;19939;-89
2022/11/21 11:20:32;;;;;;;;;;;12.40;67.70;;;;;;5106511;28;20620;-89
2022/11/21 11:22:58;;;;;;;;;;;12.70;67.60;;;;;;5110932;28;19988;-89
2022/11/21 11:25:24;;;;;;;;;;;12.90;66.00;;;;;;5112895;28;20350;-88
2022/11/21 11:27:49;;;;;;;;;;;12.90;65.90;;;;;;5093101;28;19943;-89
2022/11/21 11:30:15;;;;;;;;;;;13.20;65.40;;;;;;5109616;28;19942;-89
2022/11/21 11:32:41;;;;;;;;;;;13.30;65.00;;;;;;5112394;28;19937;-89
2022/11/21 11:35:20;;;;;;;;;;;13.60;64.10;;;;;;5113134;28;19935;-88
2022/11/21 11:38:04;;;;;;;;;;;14.00;62.60;;;;;;5094091;28;20307;-89
2022/11/21 11:40:39;;;;;;;;;;;14.40;60.90;;;;;;5113509;28;19949;-88
2022/11/21 11:47:29;;;;;;;;;;;14.90;59.00;;;;;;5092843;28;19953;-89
2022/11/21 11:49:23;;;;;;;;;;;15.40;57.40;;;;;;5092874;28;19946;-89
2022/11/21 11:52:01;;;;;;;;;;;15.60;56.30;;;;;;5102431;28;19936;-89
2022/11/21 11:54:30;;;;;;;;;;;15.90;58.00;;;;;;5110820;28;19941;-89
2022/11/21 11:56:56;;;;;;;;;;;16.60;55.40;;;;;;5112248;28;19939;-89
2022/11/21 11:59:31;;;;;;;;;;;17.30;53.80;;;;;;5110338;28;19941;-89
2022/11/21 12:02:00;;;;;;;;;;;18.00;51.90;;;;;;5111326;28;20037;-89
2022/11/21 12:04:28;;;;;;;;;;;18.10;48.60;;;;;;5113038;28;19995;-89
2022/11/21 12:06:57;;;;;;;;;;;18.60;49.10;;;;;;5112335;28;19946;-89
2022/11/21 12:09:31;;;;;;;;;;;18.70;46.40;;;;;;5109420;28;19947;-89
2022/11/21 12:12:06;;;;;;;;;;;18.30;47.80;;;;;;5110555;28;20382;-89
2022/11/21 12:17:54;;;;;;;;;;;17.80;49.10;;;;;;5106256;28;19949;-89
2022/11/21 12:20:22;;;;;;;;;;;17.30;49.10;;;;;;5106128;28;19988;-89
2022/11/21 12:22:50;;;;;;;;;;;17.40;50.10;;;;;;5112849;28;19948;-89
2022/11/21 12:25:17;;;;;;;;;;;17.90;49.80;;;;;;5097621;28;20418;-89
2022/11/21 12:27:43;;;;;;;;;;;18.60;48.90;;;;;;5114249;28;20254;-89
2022/11/21 12:30:25;;;;;;;;;;;18.80;46.60;;;;;;5110119;28;19959;-89
2022/11/21 12:32:51;;;;;;;;;;;18.60;46.50;;;;;;5085723;28;20410;-89
2022/11/21 12:35:24;;;;;;;;;;;18.80;45.90;;;;;;5109428;28;19945;-89
2022/11/21 12:38:02;;;;;;;;;;;18.90;45.70;;;;;;5110649;28;19958;-89
2022/11/21 12:40:27;;;;;;;;;;;19.80;45.30;;;;;;5109845;28;20113;-89
2022/11/21 12:42:53;;;;;;;;;;;20.80;41.50;;;;;;5106518;28;20529;-89
2022/11/21 12:45:27;;;;;;;;;;;21.40;40.50;;;;;;5108890;28;19949;-90
2022/11/21 12:56:49;;;;;;;;;;;22.50;38.00;;;;;;5107220;28;19950;-90
2022/11/21 12:59:15;;;;;;;;;;;21.70;39.50;;;;;;5107619;28;19960;-90
2022/11/21 13:01:50;;;;;;;;;;;22.00;38.40;;;;;;5109784;28;19939;-90
2022/11/21 13:04:19;;;;;;;;;;;22.30;38.30;;;;;;5106381;28;19948;-89
2022/11/21 13:06:47;;;;;;;;;;;22.30;37.70;;;;;;5111139;28;19950;-90
2022/11/21 13:09:14;;;;;;;;;;;21.20;40.70;;;;;;5111956;28;19963;-89
2022/11/21 13:11:58;;;;;;;;;;;20.30;42.10;;;;;;5094939;28;20319;-89
2022/11/21 13:14:36;;;;;;;;;;;20.30;42.10;;;;;;5086338;28;20029;-90
2022/11/21 13:17:11;;;;;;;;;;;20.70;41.10;;;;;;5110494;28;19991;-89
2022/11/21 13:19:41;;;;;;;;;;;20.00;42.20;;;;;;5107951;28;20328;-89
2022/11/21 13:22:27;;;;;;;;;;;19.40;43.50;;;;;;5104039;28;19947;-89
2022/11/21 13:24:57;;;;;;;;;;;18.50;45.80;;;;;;5106296;28;19941;-89
2022/11/21 13:27:22;;;;;;;;;;;17.80;48.20;;;;;;5109213;28;19989;-88
2022/11/21 13:30:06;;;;;;;;;;;16.90;50.20;;;;;;5113647;28;20003;-88
2022/11/21 13:32:36;;;;;;;;;;;16.40;51.70;;;;;;5106111;28;19951;-89
2022/11/21 13:35:01;;;;;;;;;;;15.60;54.50;;;;;;5099187;28;20016;-89
2022/11/21 13:37:46;;;;;;;;;;;15.10;56.90;;;;;;5114237;28;19943;-88
2022/11/21 13:40:27;;;;;;;;;;;14.60;58.10;;;;;;5107244;28;20450;-88
2022/11/21 13:43:15;;;;;;;;;;;14.50;59.00;;;;;;5102661;28;20433;-89
2022/11/21 13:45:44;;;;;;;;;;;14.10;59.90;;;;;;5103091;28;20051;-89
2022/11/21 13:48:33;;;;;;;;;;;14.10;61.00;;;;;;5107881;28;19940;-89
2022/11/21 13:50:58;;;;;;;;;;;14.30;61.40;;;;;;5101155;28;19942;-89
2022/11/21 13:53:33;;;;;;;;;;;14.50;60.60;;;;;;5106581;28;20019;-88
2022/11/21 13:56:04;;;;;;;;;;;14.40;60.80;;;;;;5103659;28;20433;-89
2022/11/21 13:58:30;;;;;;;;;;;14.50;59.70;;;;;;5101927;28;19956;-89
2022/11/21 14:01:05;;;;;;;;;;;14.90;59.40;;;;;;5099072;28;19966;-88
2022/11/21 14:03:30;;;;;;;;;;;15.30;58.60;;;;;;5094331;28;19986;-89
2022/11/21 14:05:59;;;;;;;;;;;16.00;57.60;;;;;;5109522;28;20028;-88
2022/11/21 14:08:26;;;;;;;;;;;16.80;55.10;;;;;;5107494;28;19947;-89
2022/11/21 14:10:52;;;;;;;;;;;16.90;53.10;;;;;;5110283;28;19966;-88
2022/11/21 14:13:32;;;;;;;;;;;16.80;53.70;;;;;;5106739;28;20525;-88
2022/11/21 14:16:00;;;;;;;;;;;16.30;54.10;;;;;;5099965;28;19941;-89
2022/11/21 14:18:26;;;;;;;;;;;15.70;55.40;;;;;;5106504;27;19984;-89
2022/11/21 14:20:56;;;;;;;;;;;15.30;56.70;;;;;;5109867;28;20381;-89
2022/11/21 14:23:24;;;;;;;;;;;15.10;57.20;;;;;;5086938;28;19945;-89
2022/11/21 14:25:52;;;;;;;;;;;15.40;56.90;;;;;;5108545;28;20310;-89
2022/11/21 14:28:25;;;;;;;;;;;15.40;56.90;;;;;;5110854;28;19990;-90
2022/11/21 14:30:55;;;;;;;;;;;15.30;57.50;;;;;;5109758;28;19939;-89
2022/11/21 14:33:31;;;;;;;;;;;15.10;58.70;;;;;;5108520;28;19936;-89
2022/11/21 14:36:02;;;;;;;;;;;15.10;57.80;;;;;;5104692;28;19949;-89
2022/11/21 14:38:29;;;;;;;;;;;14.60;58.90;;;;;;5111059;28;19940;-89
2022/11/21 14:41:13;;;;;;;;;;;14.40;60.20;;;;;;5109901;28;19943;-89
2022/11/21 14:43:38;;;;;;;;;;;14.20;60.70;;;;;;5104771;28;20024;-89
2022/11/21 14:46:04;;;;;;;;;;;14.00;61.90;;;;;;5107909;28;20064;-89
2022/11/21 14:48:29;;;;;;;;;;;13.80;61.60;;;;;;5110627;28;19952;-89
2022/11/21 14:50:58;;;;;;;;;;;13.60;62.70;;;;;;5109612;28;19966;-89
2022/11/21 14:53:24;;;;;;;;;;;13.40;63.60;;;;;;5106832;28;19974;-89
2022/11/21 14:55:53;;;;;;;;;;;13.30;64.70;;;;;;5106336;28;19944;-89
2022/11/21 14:58:20;;;;;;;;;;;13.30;64.00;;;;;;5103816;28;20391;-89
2022/11/21 15:01:06;;;;;;;;;;;13.10;65.00;;;;;;5086873;28;19949;-89
2022/11/21 15:03:32;;;;;;;;;;;12.90;65.30;;;;;;5088704;28;20055;-89
2022/11/21 15:05:58;;;;;;;;;;;12.60;66.80;;;;;;5105416;28;20391;-89